sensor_id;sensor_type;location;lat;lon;timestamp;temperature;humidity
18577;DHT22;9418;52.694;13.294;2022-09-14T00:01:06;12.10;99.90
18577;DHT22;9418;52.694;13.294;2022-09-14T00:03:33;12.10;99.90
18577;DHT22;9418;52.694;13.294;2022-09-14T00:06:04;12.10;99.90
18577;DHT22;9418;52.694;13.294;2022-09-14T00:08:31;12.10;99.90
18577;DHT22;9418;52.694;13.294;2022-09-14T00:10:58;12.00;99.90
18577;DHT22;9418;52.694;13.294;2022-09-14T00:13:29;12.00;99.90
18577;DHT22;9418;52.694;13.294;2022-09-14T00:15:55;12.00;99.40
18577;DHT22;9418;52.694;13.294;2022-09-14T00:18:22;12.00;99.90
18577;DHT22;9418;52.694;13.294;2022-09-14T00:20:49;12.00;99.90
18577;DHT22;9418;52.694;13.294;2022-09-14T00:23:17;11.90;99.90
18577;DHT22;9418;52.694;13.294;2022-09-14T00:25:43;11.90;99.90
18577;DHT22;9418;52.694;13.294;2022-09-14T00:28:10;12.00;99.90
18577;DHT22;9418;52.694;13.294;2022-09-14T00:30:40;12.00;91.00
18577;DHT22;9418;52.694;13.294;2022-09-14T00:33:08;12.00;99.90
18577;DHT22;9418;52.694;13.294;2022-09-14T00:35:34;11.90;99.30
18577;DHT22;9418;52.694;13.294;2022-09-14T00:38:01;11.90;99.90
18577;DHT22;9418;52.694;13.294;2022-09-14T00:40:29;11.90;99.90
18577;DHT22;9418;52.694;13.294;2022-09-14T00:42:56;11.90;99.90
18577;DHT22;9418;52.694;13.294;2022-09-14T00:45:24;11.90;97.80
18577;DHT22;9418;52.694;13.294;2022-09-14T00:47:52;11.90;98.60
18577;DHT22;9418;52.694;13.294;2022-09-14T00:50:21;11.90;99.90
18577;DHT22;9418;52.694;13.294;2022-09-14T00:52:49;11.90;99.90
18577;DHT22;9418;52.694;13.294;2022-09-14T00:55:19;11.90;99.90
18577;DHT22;9418;52.694;13.294;2022-09-14T00:57:51;11.80;99.90
18577;DHT22;9418;52.694;13.294;2022-09-14T01:00:22;11.80;99.90
18577;DHT22;9418;52.694;13.294;2022-09-14T01:02:49;11.80;99.90
18577;DHT22;9418;52.694;13.294;2022-09-14T01:05:15;11.80;99.90
18577;DHT22;9418;52.694;13.294;2022-09-14T01:07:59;11.80;99.90
18577;DHT22;9418;52.694;13.294;2022-09-14T01:10:41;11.80;99.10
18577;DHT22;9418;52.694;13.294;2022-09-14T01:13:23;11.80;99.90
18577;DHT22;9418;52.694;13.294;2022-09-14T01:15:57;11.80;93.70
18577;DHT22;9418;52.694;13.294;2022-09-14T01:18:27;11.80;99.90
18577;DHT22;9418;52.694;13.294;2022-09-14T01:20:59;11.80;99.50
18577;DHT22;9418;52.694;13.294;2022-09-14T01:23:33;11.80;95.20
18577;DHT22;9418;52.694;13.294;2022-09-14T01:26:27;11.80;98.80
18577;DHT22;9418;52.694;13.294;2022-09-14T01:29:01;11.70;99.30
18577;DHT22;9418;52.694;13.294;2022-09-14T01:31:35;11.70;99.90
18577;DHT22;9418;52.694;13.294;2022-09-14T01:34:07;11.70;99.90
18577;DHT22;9418;52.694;13.294;2022-09-14T01:36:38;11.60;99.90
18577;DHT22;9418;52.694;13.294;2022-09-14T01:39:05;11.70;99.90
18577;DHT22;9418;52.694;13.294;2022-09-14T01:41:33;11.60;99.90
18577;DHT22;9418;52.694;13.294;2022-09-14T01:44:06;11.60;99.90
18577;DHT22;9418;52.694;13.294;2022-09-14T01:46:37;11.60;99.90
18577;DHT22;9418;52.694;13.294;2022-09-14T01:49:08;11.60;99.90
18577;DHT22;9418;52.694;13.294;2022-09-14T01:51:40;11.60;99.90
18577;DHT22;9418;52.694;13.294;2022-09-14T01:54:13;11.50;99.90
18577;DHT22;9418;52.694;13.294;2022-09-14T01:56:48;11.60;99.90
18577;DHT22;9418;52.694;13.294;2022-09-14T01:59:19;11.50;99.90
18577;DHT22;9418;52.694;13.294;2022-09-14T02:01:49;11.50;99.90
18577;DHT22;9418;52.694;13.294;2022-09-14T02:04:22;11.50;99.90
18577;DHT22;9418;52.694;13.294;2022-09-14T02:06:51;11.50;99.90
18577;DHT22;9418;52.694;13.294;2022-09-14T02:09:21;11.50;99.90
18577;DHT22;9418;52.694;13.294;2022-09-14T02:11:51;11.60;99.00
18577;DHT22;9418;52.694;13.294;2022-09-14T02:14:19;11.50;99.90
18577;DHT22;9418;52.694;13.294;2022-09-14T02:16:46;11.50;99.90
18577;DHT22;9418;52.694;13.294;2022-09-14T02:19:13;11.50;99.90
18577;DHT22;9418;52.694;13.294;2022-09-14T02:21:40;11.50;99.90
18577;DHT22;9418;52.694;13.294;2022-09-14T02:24:08;11.50;99.90
18577;DHT22;9418;52.694;13.294;2022-09-14T02:26:35;11.50;99.90
18577;DHT22;9418;52.694;13.294;2022-09-14T02:29:02;11.60;99.90
18577;DHT22;9418;52.694;13.294;2022-09-14T02:31:37;11.60;99.90
18577;DHT22;9418;52.694;13.294;2022-09-14T02:34:09;11.60;99.90
18577;DHT22;9418;52.694;13.294;2022-09-14T02:36:46;11.60;99.90
18577;DHT22;9418;52.694;13.294;2022-09-14T02:39:24;11.60;99.90
18577;DHT22;9418;52.694;13.294;2022-09-14T02:41:58;11.60;99.90
18577;DHT22;9418;52.694;13.294;2022-09-14T02:44:33;11.60;99.90
18577;DHT22;9418;52.694;13.294;2022-09-14T02:47:07;11.50;99.90
18577;DHT22;9418;52.694;13.294;2022-09-14T02:49:43;11.50;99.90
18577;DHT22;9418;52.694;13.294;2022-09-14T02:52:14;11.50;99.90
18577;DHT22;9418;52.694;13.294;2022-09-14T02:54:45;11.60;99.90
18577;DHT22;9418;52.694;13.294;2022-09-14T02:57:13;11.60;99.90
18577;DHT22;9418;52.694;13.294;2022-09-14T02:59:40;11.60;99.90
18577;DHT22;9418;52.694;13.294;2022-09-14T03:02:08;11.60;99.90
18577;DHT22;9418;52.694;13.294;2022-09-14T03:04:34;11.50;99.90
18577;DHT22;9418;52.694;13.294;2022-09-14T03:07:01;11.50;99.90
18577;DHT22;9418;52.694;13.294;2022-09-14T03:09:28;11.50;99.90
18577;DHT22;9418;52.694;13.294;2022-09-14T03:11:54;11.50;99.90
18577;DHT22;9418;52.694;13.294;2022-09-14T03:14:21;11.50;99.90
18577;DHT22;9418;52.694;13.294;2022-09-14T03:16:47;11.50;99.10
18577;DHT22;9418;52.694;13.294;2022-09-14T03:19:16;11.50;99.00
18577;DHT22;9418;52.694;13.294;2022-09-14T03:21:42;11.60;98.70
18577;DHT22;9418;52.694;13.294;2022-09-14T03:24:09;11.60;99.50
18577;DHT22;9418;52.694;13.294;2022-09-14T03:26:35;11.60;99.90
18577;DHT22;9418;52.694;13.294;2022-09-14T03:29:03;11.60;99.90
18577;DHT22;9418;52.694;13.294;2022-09-14T03:31:31;11.50;99.90
18577;DHT22;9418;52.694;13.294;2022-09-14T03:33:59;11.50;99.90
18577;DHT22;9418;52.694;13.294;2022-09-14T03:36:29;11.60;99.90
18577;DHT22;9418;52.694;13.294;2022-09-14T03:38:58;11.60;99.90
18577;DHT22;9418;52.694;13.294;2022-09-14T03:41:26;11.50;99.90
18577;DHT22;9418;52.694;13.294;2022-09-14T03:43:53;11.50;99.90
18577;DHT22;9418;52.694;13.294;2022-09-14T03:46:21;11.40;99.90
18577;DHT22;9418;52.694;13.294;2022-09-14T03:48:49;11.40;99.90
18577;DHT22;9418;52.694;13.294;2022-09-14T03:51:16;11.40;99.90
18577;DHT22;9418;52.694;13.294;2022-09-14T03:53:44;11.30;99.90
18577;DHT22;9418;52.694;13.294;2022-09-14T03:56:12;11.40;99.90
18577;DHT22;9418;52.694;13.294;2022-09-14T03:58:40;11.30;99.90
18577;DHT22;9418;52.694;13.294;2022-09-14T04:01:09;11.30;99.90
18577;DHT22;9418;52.694;13.294;2022-09-14T04:03:36;11.40;99.90
18577;DHT22;9418;52.694;13.294;2022-09-14T04:06:03;11.30;99.90
18577;DHT22;9418;52.694;13.294;2022-09-14T04:08:31;11.30;99.90
18577;DHT22;9418;52.694;13.294;2022-09-14T04:10:59;11.30;99.90
18577;DHT22;9418;52.694;13.294;2022-09-14T04:13:26;11.30;99.90
18577;DHT22;9418;52.694;13.294;2022-09-14T04:15:56;11.30;99.90
18577;DHT22;9418;52.694;13.294;2022-09-14T04:18:23;11.20;99.90
18577;DHT22;9418;52.694;13.294;2022-09-14T04:20:54;11.20;99.90
18577;DHT22;9418;52.694;13.294;2022-09-14T04:23:21;11.30;99.90
18577;DHT22;9418;52.694;13.294;2022-09-14T04:25:48;11.20;99.90
18577;DHT22;9418;52.694;13.294;2022-09-14T04:28:16;11.20;99.90
18577;DHT22;9418;52.694;13.294;2022-09-14T04:30:43;11.20;99.90
18577;DHT22;9418;52.694;13.294;2022-09-14T04:33:10;11.20;99.90
18577;DHT22;9418;52.694;13.294;2022-09-14T04:35:36;11.20;99.90
18577;DHT22;9418;52.694;13.294;2022-09-14T04:38:03;11.20;99.90
18577;DHT22;9418;52.694;13.294;2022-09-14T04:40:30;11.30;99.90
18577;DHT22;9418;52.694;13.294;2022-09-14T04:42:56;11.30;99.90
18577;DHT22;9418;52.694;13.294;2022-09-14T04:45:24;11.20;99.90
18577;DHT22;9418;52.694;13.294;2022-09-14T04:47:52;11.30;99.90
18577;DHT22;9418;52.694;13.294;2022-09-14T04:50:19;11.20;99.90
18577;DHT22;9418;52.694;13.294;2022-09-14T04:52:45;11.20;99.90
18577;DHT22;9418;52.694;13.294;2022-09-14T04:55:12;11.30;99.90
18577;DHT22;9418;52.694;13.294;2022-09-14T04:57:38;11.20;99.90
18577;DHT22;9418;52.694;13.294;2022-09-14T05:00:06;11.30;99.90
18577;DHT22;9418;52.694;13.294;2022-09-14T05:02:39;11.20;99.90
18577;DHT22;9418;52.694;13.294;2022-09-14T05:05:06;11.20;99.90
18577;DHT22;9418;52.694;13.294;2022-09-14T05:07:33;11.20;99.90
18577;DHT22;9418;52.694;13.294;2022-09-14T05:10:00;11.30;99.90
18577;DHT22;9418;52.694;13.294;2022-09-14T05:12:26;11.30;99.90
18577;DHT22;9418;52.694;13.294;2022-09-14T05:14:54;11.30;99.70
18577;DHT22;9418;52.694;13.294;2022-09-14T05:17:21;11.30;98.10
18577;DHT22;9418;52.694;13.294;2022-09-14T05:19:49;11.30;97.40
18577;DHT22;9418;52.694;13.294;2022-09-14T05:22:16;11.40;95.70
18577;DHT22;9418;52.694;13.294;2022-09-14T05:24:42;11.40;96.60
18577;DHT22;9418;52.694;13.294;2022-09-14T05:27:09;11.40;96.50
18577;DHT22;9418;52.694;13.294;2022-09-14T05:29:35;11.40;96.10
18577;DHT22;9418;52.694;13.294;2022-09-14T05:32:04;11.50;92.50
18577;DHT22;9418;52.694;13.294;2022-09-14T05:34:31;11.50;92.90
18577;DHT22;9418;52.694;13.294;2022-09-14T05:36:59;11.50;91.30
18577;DHT22;9418;52.694;13.294;2022-09-14T05:39:25;11.60;90.90
18577;DHT22;9418;52.694;13.294;2022-09-14T05:41:52;11.60;91.20
18577;DHT22;9418;52.694;13.294;2022-09-14T05:44:18;11.60;91.00
18577;DHT22;9418;52.694;13.294;2022-09-14T05:46:45;11.70;91.20
18577;DHT22;9418;52.694;13.294;2022-09-14T05:49:11;11.70;94.20
18577;DHT22;9418;52.694;13.294;2022-09-14T05:51:38;11.60;93.40
18577;DHT22;9418;52.694;13.294;2022-09-14T05:54:06;11.70;95.00
18577;DHT22;9418;52.694;13.294;2022-09-14T05:56:35;11.70;93.80
18577;DHT22;9418;52.694;13.294;2022-09-14T05:59:02;11.70;93.00
18577;DHT22;9418;52.694;13.294;2022-09-14T06:01:30;11.80;92.60
18577;DHT22;9418;52.694;13.294;2022-09-14T06:03:59;11.90;94.00
18577;DHT22;9418;52.694;13.294;2022-09-14T06:06:28;12.00;99.00
18577;DHT22;9418;52.694;13.294;2022-09-14T06:08:55;12.00;99.20
18577;DHT22;9418;52.694;13.294;2022-09-14T06:11:25;12.00;99.90
18577;DHT22;9418;52.694;13.294;2022-09-14T06:13:53;12.00;99.90
18577;DHT22;9418;52.694;13.294;2022-09-14T06:16:21;12.10;99.90
18577;DHT22;9418;52.694;13.294;2022-09-14T06:18:48;12.10;99.90
18577;DHT22;9418;52.694;13.294;2022-09-14T06:21:16;12.20;99.90
18577;DHT22;9418;52.694;13.294;2022-09-14T06:23:44;12.20;99.90
18577;DHT22;9418;52.694;13.294;2022-09-14T06:26:11;12.30;99.90
18577;DHT22;9418;52.694;13.294;2022-09-14T06:28:39;12.40;99.90
18577;DHT22;9418;52.694;13.294;2022-09-14T06:31:06;12.40;99.90
18577;DHT22;9418;52.694;13.294;2022-09-14T06:33:34;12.50;99.90
18577;DHT22;9418;52.694;13.294;2022-09-14T06:36:03;12.50;99.90
18577;DHT22;9418;52.694;13.294;2022-09-14T06:38:32;12.60;99.90
18577;DHT22;9418;52.694;13.294;2022-09-14T06:41:00;12.60;99.90
18577;DHT22;9418;52.694;13.294;2022-09-14T06:43:31;12.60;99.90
18577;DHT22;9418;52.694;13.294;2022-09-14T06:46:01;12.70;99.90
18577;DHT22;9418;52.694;13.294;2022-09-14T06:48:30;12.70;99.90
18577;DHT22;9418;52.694;13.294;2022-09-14T06:50:58;12.80;99.90
18577;DHT22;9418;52.694;13.294;2022-09-14T06:53:25;12.90;99.90
18577;DHT22;9418;52.694;13.294;2022-09-14T06:55:52;13.00;99.90
18577;DHT22;9418;52.694;13.294;2022-09-14T06:58:18;13.00;99.90
18577;DHT22;9418;52.694;13.294;2022-09-14T07:00:45;13.10;99.90
18577;DHT22;9418;52.694;13.294;2022-09-14T07:03:13;13.20;99.90
18577;DHT22;9418;52.694;13.294;2022-09-14T07:05:39;13.20;99.90
18577;DHT22;9418;52.694;13.294;2022-09-14T07:08:06;13.30;99.90
18577;DHT22;9418;52.694;13.294;2022-09-14T07:10:32;13.30;99.90
18577;DHT22;9418;52.694;13.294;2022-09-14T07:12:59;13.40;99.90
18577;DHT22;9418;52.694;13.294;2022-09-14T07:15:26;13.50;99.90
18577;DHT22;9418;52.694;13.294;2022-09-14T07:17:52;13.60;99.90
18577;DHT22;9418;52.694;13.294;2022-09-14T07:20:20;13.70;99.90
18577;DHT22;9418;52.694;13.294;2022-09-14T07:22:47;13.80;99.90
18577;DHT22;9418;52.694;13.294;2022-09-14T07:25:13;13.90;99.90
18577;DHT22;9418;52.694;13.294;2022-09-14T07:27:40;14.00;99.90
18577;DHT22;9418;52.694;13.294;2022-09-14T07:30:07;14.10;99.90
18577;DHT22;9418;52.694;13.294;2022-09-14T07:32:34;14.10;99.90
18577;DHT22;9418;52.694;13.294;2022-09-14T07:35:01;14.20;99.90
18577;DHT22;9418;52.694;13.294;2022-09-14T07:37:29;14.30;99.90
18577;DHT22;9418;52.694;13.294;2022-09-14T07:39:56;14.40;99.90
18577;DHT22;9418;52.694;13.294;2022-09-14T07:42:22;14.50;99.90
18577;DHT22;9418;52.694;13.294;2022-09-14T07:44:49;14.60;99.90
18577;DHT22;9418;52.694;13.294;2022-09-14T07:47:16;14.70;90.30
18577;DHT22;9418;52.694;13.294;2022-09-14T07:49:42;14.80;81.40
18577;DHT22;9418;52.694;13.294;2022-09-14T07:52:09;14.80;25.50
18577;DHT22;9418;52.694;13.294;2022-09-14T07:54:37;14.90;23.60
18577;DHT22;9418;52.694;13.294;2022-09-14T07:57:04;14.90;34.20
18577;DHT22;9418;52.694;13.294;2022-09-14T07:59:30;14.90;41.90
18577;DHT22;9418;52.694;13.294;2022-09-14T08:01:57;14.90;52.00
18577;DHT22;9418;52.694;13.294;2022-09-14T08:04:24;14.90;54.20
18577;DHT22;9418;52.694;13.294;2022-09-14T08:06:50;15.00;56.20
18577;DHT22;9418;52.694;13.294;2022-09-14T08:09:17;15.00;59.00
18577;DHT22;9418;52.694;13.294;2022-09-14T08:11:45;15.10;75.20
18577;DHT22;9418;52.694;13.294;2022-09-14T08:14:12;15.10;72.30
18577;DHT22;9418;52.694;13.294;2022-09-14T08:16:40;15.20;71.00
18577;DHT22;9418;52.694;13.294;2022-09-14T08:19:11;15.30;78.40
18577;DHT22;9418;52.694;13.294;2022-09-14T08:21:37;15.30;78.30
18577;DHT22;9418;52.694;13.294;2022-09-14T08:24:04;15.40;85.70
18577;DHT22;9418;52.694;13.294;2022-09-14T08:26:33;15.40;99.90
18577;DHT22;9418;52.694;13.294;2022-09-14T08:29:02;15.50;99.90
18577;DHT22;9418;52.694;13.294;2022-09-14T08:31:30;15.50;99.90
18577;DHT22;9418;52.694;13.294;2022-09-14T08:33:58;15.60;99.90
18577;DHT22;9418;52.694;13.294;2022-09-14T08:36:26;15.70;99.90
18577;DHT22;9418;52.694;13.294;2022-09-14T08:38:53;15.80;99.90
18577;DHT22;9418;52.694;13.294;2022-09-14T08:41:26;15.90;99.90
18577;DHT22;9418;52.694;13.294;2022-09-14T08:43:54;15.90;99.90
18577;DHT22;9418;52.694;13.294;2022-09-14T08:46:32;16.00;99.90
18577;DHT22;9418;52.694;13.294;2022-09-14T08:49:01;15.90;99.90
18577;DHT22;9418;52.694;13.294;2022-09-14T08:51:29;16.00;99.90
18577;DHT22;9418;52.694;13.294;2022-09-14T08:53:56;16.00;99.90
18577;DHT22;9418;52.694;13.294;2022-09-14T08:56:28;16.00;99.90
18577;DHT22;9418;52.694;13.294;2022-09-14T08:59:13;16.10;99.90
18577;DHT22;9418;52.694;13.294;2022-09-14T09:01:48;16.10;99.90
18577;DHT22;9418;52.694;13.294;2022-09-14T09:04:34;16.10;99.90
18577;DHT22;9418;52.694;13.294;2022-09-14T09:07:07;16.10;99.90
18577;DHT22;9418;52.694;13.294;2022-09-14T09:09:42;16.10;99.90
18577;DHT22;9418;52.694;13.294;2022-09-14T09:12:13;16.10;99.90
18577;DHT22;9418;52.694;13.294;2022-09-14T09:14:42;16.20;99.90
18577;DHT22;9418;52.694;13.294;2022-09-14T09:17:14;16.20;99.90
18577;DHT22;9418;52.694;13.294;2022-09-14T09:19:51;16.30;99.90
18577;DHT22;9418;52.694;13.294;2022-09-14T09:22:21;16.30;99.90
18577;DHT22;9418;52.694;13.294;2022-09-14T09:24:51;16.30;99.90
18577;DHT22;9418;52.694;13.294;2022-09-14T09:27:19;16.30;99.90
18577;DHT22;9418;52.694;13.294;2022-09-14T09:29:45;16.40;99.90
18577;DHT22;9418;52.694;13.294;2022-09-14T09:32:16;16.50;99.90
18577;DHT22;9418;52.694;13.294;2022-09-14T09:34:43;16.70;90.10
18577;DHT22;9418;52.694;13.294;2022-09-14T09:37:12;16.80;99.90
18577;DHT22;9418;52.694;13.294;2022-09-14T09:39:39;16.80;99.90
18577;DHT22;9418;52.694;13.294;2022-09-14T09:42:13;16.80;99.90
18577;DHT22;9418;52.694;13.294;2022-09-14T09:44:53;16.80;90.00
18577;DHT22;9418;52.694;13.294;2022-09-14T09:47:30;16.70;99.90
18577;DHT22;9418;52.694;13.294;2022-09-14T09:50:00;16.70;99.90
18577;DHT22;9418;52.694;13.294;2022-09-14T09:52:28;16.70;99.90
18577;DHT22;9418;52.694;13.294;2022-09-14T09:54:55;16.80;73.60
18577;DHT22;9418;52.694;13.294;2022-09-14T09:57:28;16.80;23.10
18577;DHT22;9418;52.694;13.294;2022-09-14T10:00:10;16.70;37.50
18577;DHT22;9418;52.694;13.294;2022-09-14T10:02:39;16.70;32.10
18577;DHT22;9418;52.694;13.294;2022-09-14T10:05:19;16.90;30.30
18577;DHT22;9418;52.694;13.294;2022-09-14T10:07:52;17.00;36.30
18577;DHT22;9418;52.694;13.294;2022-09-14T10:10:24;17.30;40.50
18577;DHT22;9418;52.694;13.294;2022-09-14T10:12:53;17.20;50.40
18577;DHT22;9418;52.694;13.294;2022-09-14T10:15:22;17.30;40.80
18577;DHT22;9418;52.694;13.294;2022-09-14T10:18:05;17.50;51.70
18577;DHT22;9418;52.694;13.294;2022-09-14T10:20:33;17.50;74.30
18577;DHT22;9418;52.694;13.294;2022-09-14T10:23:19;17.40;65.90
18577;DHT22;9418;52.694;13.294;2022-09-14T10:25:49;17.40;68.70
18577;DHT22;9418;52.694;13.294;2022-09-14T10:28:22;17.30;81.80
18577;DHT22;9418;52.694;13.294;2022-09-14T10:30:51;17.30;72.70
18577;DHT22;9418;52.694;13.294;2022-09-14T10:33:21;17.30;72.90
18577;DHT22;9418;52.694;13.294;2022-09-14T10:35:53;17.30;72.10
18577;DHT22;9418;52.694;13.294;2022-09-14T10:38:31;17.30;74.70
18577;DHT22;9418;52.694;13.294;2022-09-14T10:41:08;17.40;61.00
18577;DHT22;9418;52.694;13.294;2022-09-14T10:43:45;17.40;61.20
18577;DHT22;9418;52.694;13.294;2022-09-14T10:46:19;17.30;81.30
18577;DHT22;9418;52.694;13.294;2022-09-14T10:49:03;17.20;76.90
18577;DHT22;9418;52.694;13.294;2022-09-14T10:51:44;17.20;73.70
18577;DHT22;9418;52.694;13.294;2022-09-14T10:57:16;17.30;82.40
18577;DHT22;9418;52.694;13.294;2022-09-14T10:59:49;17.30;79.30
18577;DHT22;9418;52.694;13.294;2022-09-14T11:02:29;17.20;79.00
18577;DHT22;9418;52.694;13.294;2022-09-14T11:05:09;17.30;80.30
18577;DHT22;9418;52.694;13.294;2022-09-14T11:07:44;17.30;77.30
18577;DHT22;9418;52.694;13.294;2022-09-14T11:10:18;17.30;72.20
18577;DHT22;9418;52.694;13.294;2022-09-14T11:12:54;17.30;70.90
18577;DHT22;9418;52.694;13.294;2022-09-14T11:15:26;17.40;75.80
18577;DHT22;9418;52.694;13.294;2022-09-14T11:18:15;17.50;76.50
18577;DHT22;9418;52.694;13.294;2022-09-14T11:20:52;17.60;94.30
18577;DHT22;9418;52.694;13.294;2022-09-14T11:23:33;17.70;75.30
18577;DHT22;9418;52.694;13.294;2022-09-14T11:26:07;17.80;93.10
18577;DHT22;9418;52.694;13.294;2022-09-14T11:28:39;17.80;99.50
18577;DHT22;9418;52.694;13.294;2022-09-14T11:31:10;17.90;99.90
18577;DHT22;9418;52.694;13.294;2022-09-14T11:33:43;17.90;99.90
18577;DHT22;9418;52.694;13.294;2022-09-14T11:36:17;18.00;93.00
18577;DHT22;9418;52.694;13.294;2022-09-14T11:38:48;18.00;97.30
18577;DHT22;9418;52.694;13.294;2022-09-14T11:41:22;18.00;99.90
18577;DHT22;9418;52.694;13.294;2022-09-14T11:43:55;17.90;99.90
18577;DHT22;9418;52.694;13.294;2022-09-14T11:46:26;17.90;99.90
18577;DHT22;9418;52.694;13.294;2022-09-14T11:49:00;17.90;99.90
18577;DHT22;9418;52.694;13.294;2022-09-14T11:51:35;17.90;99.50
18577;DHT22;9418;52.694;13.294;2022-09-14T11:54:02;17.90;91.30
18577;DHT22;9418;52.694;13.294;2022-09-14T11:56:35;17.70;96.50
18577;DHT22;9418;52.694;13.294;2022-09-14T11:59:04;17.80;99.40
18577;DHT22;9418;52.694;13.294;2022-09-14T12:01:33;17.80;98.30
18577;DHT22;9418;52.694;13.294;2022-09-14T12:04:19;17.80;98.90
18577;DHT22;9418;52.694;13.294;2022-09-14T12:06:53;17.90;93.50
18577;DHT22;9418;52.694;13.294;2022-09-14T12:09:51;17.90;85.60
18577;DHT22;9418;52.694;13.294;2022-09-14T12:12:36;17.90;99.90
18577;DHT22;9418;52.694;13.294;2022-09-14T12:15:19;17.80;96.80
18577;DHT22;9418;52.694;13.294;2022-09-14T12:17:47;17.70;98.10
18577;DHT22;9418;52.694;13.294;2022-09-14T12:20:34;17.70;93.90
18577;DHT22;9418;52.694;13.294;2022-09-14T12:23:19;17.60;93.70
18577;DHT22;9418;52.694;13.294;2022-09-14T12:29:28;17.50;87.90
18577;DHT22;9418;52.694;13.294;2022-09-14T12:32:09;17.50;84.40
18577;DHT22;9418;52.694;13.294;2022-09-14T12:38:38;17.50;82.10
18577;DHT22;9418;52.694;13.294;2022-09-14T12:44:28;17.60;81.50
18577;DHT22;9418;52.694;13.294;2022-09-14T12:46:55;17.50;90.50
18577;DHT22;9418;52.694;13.294;2022-09-14T12:49:29;17.50;99.70
18577;DHT22;9418;52.694;13.294;2022-09-14T12:52:12;17.60;88.00
18577;DHT22;9418;52.694;13.294;2022-09-14T12:54:49;17.60;83.60
18577;DHT22;9418;52.694;13.294;2022-09-14T12:57:26;17.70;82.80
18577;DHT22;9418;52.694;13.294;2022-09-14T13:00:03;17.80;83.10
18577;DHT22;9418;52.694;13.294;2022-09-14T13:03:00;18.00;99.90
18577;DHT22;9418;52.694;13.294;2022-09-14T13:05:31;18.00;80.10
18577;DHT22;9418;52.694;13.294;2022-09-14T13:07:59;18.10;92.60
18577;DHT22;9418;52.694;13.294;2022-09-14T13:10:30;18.20;98.60
18577;DHT22;9418;52.694;13.294;2022-09-14T13:12:59;18.40;94.50
18577;DHT22;9418;52.694;13.294;2022-09-14T13:15:28;18.50;99.50
18577;DHT22;9418;52.694;13.294;2022-09-14T13:18:01;18.50;99.90
18577;DHT22;9418;52.694;13.294;2022-09-14T13:20:31;18.60;97.80
18577;DHT22;9418;52.694;13.294;2022-09-14T13:22:58;18.60;94.80
18577;DHT22;9418;52.694;13.294;2022-09-14T13:25:29;18.50;99.90
18577;DHT22;9418;52.694;13.294;2022-09-14T13:27:59;18.30;99.90
18577;DHT22;9418;52.694;13.294;2022-09-14T13:30:26;18.20;99.90
18577;DHT22;9418;52.694;13.294;2022-09-14T13:32:55;18.10;99.90
18577;DHT22;9418;52.694;13.294;2022-09-14T13:35:28;18.00;98.20
18577;DHT22;9418;52.694;13.294;2022-09-14T13:37:56;17.90;98.40
18577;DHT22;9418;52.694;13.294;2022-09-14T13:40:24;17.90;89.30
18577;DHT22;9418;52.694;13.294;2022-09-14T13:42:54;17.90;92.70
18577;DHT22;9418;52.694;13.294;2022-09-14T13:45:21;17.80;99.90
18577;DHT22;9418;52.694;13.294;2022-09-14T13:47:48;17.80;99.90
18577;DHT22;9418;52.694;13.294;2022-09-14T13:50:16;17.80;97.10
18577;DHT22;9418;52.694;13.294;2022-09-14T13:52:43;17.80;92.10
18577;DHT22;9418;52.694;13.294;2022-09-14T13:55:17;17.70;95.10
18577;DHT22;9418;52.694;13.294;2022-09-14T13:58:04;17.70;94.50
18577;DHT22;9418;52.694;13.294;2022-09-14T14:00:31;17.70;91.00
18577;DHT22;9418;52.694;13.294;2022-09-14T14:03:01;17.70;96.00
18577;DHT22;9418;52.694;13.294;2022-09-14T14:05:30;17.70;92.80
18577;DHT22;9418;52.694;13.294;2022-09-14T14:07:59;17.60;93.30
18577;DHT22;9418;52.694;13.294;2022-09-14T14:10:29;17.70;90.80
18577;DHT22;9418;52.694;13.294;2022-09-14T14:12:57;17.60;85.20
18577;DHT22;9418;52.694;13.294;2022-09-14T14:15:36;17.60;87.80
18577;DHT22;9418;52.694;13.294;2022-09-14T14:21:23;17.50;92.80
18577;DHT22;9418;52.694;13.294;2022-09-14T14:23:52;17.50;87.80
18577;DHT22;9418;52.694;13.294;2022-09-14T14:26:23;17.50;88.60
18577;DHT22;9418;52.694;13.294;2022-09-14T14:28:51;17.50;85.40
18577;DHT22;9418;52.694;13.294;2022-09-14T14:31:20;17.40;86.70
18577;DHT22;9418;52.694;13.294;2022-09-14T14:33:51;17.40;88.20
18577;DHT22;9418;52.694;13.294;2022-09-14T14:36:19;17.30;97.40
18577;DHT22;9418;52.694;13.294;2022-09-14T14:38:46;17.30;99.90
18577;DHT22;9418;52.694;13.294;2022-09-14T14:41:14;17.30;95.90
18577;DHT22;9418;52.694;13.294;2022-09-14T14:43:42;17.30;98.30
18577;DHT22;9418;52.694;13.294;2022-09-14T14:46:11;17.30;97.50
18577;DHT22;9418;52.694;13.294;2022-09-14T14:48:39;17.30;98.00
18577;DHT22;9418;52.694;13.294;2022-09-14T14:51:10;17.30;98.30
18577;DHT22;9418;52.694;13.294;2022-09-14T14:53:38;17.30;93.40
18577;DHT22;9418;52.694;13.294;2022-09-14T14:56:05;17.30;87.40
18577;DHT22;9418;52.694;13.294;2022-09-14T14:58:31;17.30;89.90
18577;DHT22;9418;52.694;13.294;2022-09-14T15:00:58;17.20;96.20
18577;DHT22;9418;52.694;13.294;2022-09-14T15:03:24;17.20;92.90
18577;DHT22;9418;52.694;13.294;2022-09-14T15:05:52;17.20;92.10
18577;DHT22;9418;52.694;13.294;2022-09-14T15:08:19;17.20;88.30
18577;DHT22;9418;52.694;13.294;2022-09-14T15:10:46;17.20;87.90
18577;DHT22;9418;52.694;13.294;2022-09-14T15:13:13;17.10;86.40
18577;DHT22;9418;52.694;13.294;2022-09-14T15:15:40;17.10;83.00
18577;DHT22;9418;52.694;13.294;2022-09-14T15:18:08;17.10;79.20
18577;DHT22;9418;52.694;13.294;2022-09-14T15:20:34;17.10;77.10
18577;DHT22;9418;52.694;13.294;2022-09-14T15:23:03;17.10;70.90
18577;DHT22;9418;52.694;13.294;2022-09-14T15:25:30;17.10;71.30
18577;DHT22;9418;52.694;13.294;2022-09-14T15:27:56;17.10;69.50
18577;DHT22;9418;52.694;13.294;2022-09-14T15:30:23;17.00;70.30
18577;DHT22;9418;52.694;13.294;2022-09-14T15:32:49;17.00;70.40
18577;DHT22;9418;52.694;13.294;2022-09-14T15:35:16;17.00;70.80
18577;DHT22;9418;52.694;13.294;2022-09-14T15:37:43;17.00;73.90
18577;DHT22;9418;52.694;13.294;2022-09-14T15:40:13;17.00;72.70
18577;DHT22;9418;52.694;13.294;2022-09-14T15:42:39;17.00;69.30
18577;DHT22;9418;52.694;13.294;2022-09-14T15:45:06;17.00;69.30
18577;DHT22;9418;52.694;13.294;2022-09-14T15:47:33;17.00;62.80
18577;DHT22;9418;52.694;13.294;2022-09-14T15:50:00;16.90;44.00
18577;DHT22;9418;52.694;13.294;2022-09-14T15:52:27;16.90;51.70
18577;DHT22;9418;52.694;13.294;2022-09-14T15:54:53;16.90;52.20
18577;DHT22;9418;52.694;13.294;2022-09-14T15:57:21;16.90;48.80
18577;DHT22;9418;52.694;13.294;2022-09-14T15:59:48;16.80;53.70
18577;DHT22;9418;52.694;13.294;2022-09-14T16:02:14;16.80;42.80
18577;DHT22;9418;52.694;13.294;2022-09-14T16:04:44;16.80;41.50